Time;durP1;ratioP1;P1;durP2;ratioP2;P2;SDS_P1;SDS_P2;PMS_P1;PMS_P2;Temp;Humidity;BMP_temperature;BMP_pressure;BME280_temperature;BME280_humidity;BME280_pressure;Samples;Min_cycle;Max_cycle;Signal;HPM_P1;HPM_P2
2022/07/12 00:01:37;;;;;;;4.75;2.50;;;;;;;14.10;76.65;99368.26;1673620;85;21033;-80
2022/07/12 00:04:04;;;;;;;4.65;2.37;;;;;;;14.06;75.28;99367.97;1681347;85;21017;-81
2022/07/12 00:06:31;;;;;;;3.15;1.75;;;;;;;14.01;77.67;99369.91;1676931;85;21011;-81
2022/07/12 00:08:58;;;;;;;7.08;2.10;;;;;;;13.95;76.45;99366.20;1672076;85;20979;-81
2022/07/12 00:11:24;;;;;;;4.97;2.30;;;;;;;13.88;77.69;99363.39;1652598;86;21465;-82
2022/07/12 00:13:51;;;;;;;4.17;2.62;;;;;;;13.80;77.82;99358.88;1661547;84;21050;-83
2022/07/12 00:16:18;;;;;;;4.35;2.25;;;;;;;13.71;74.86;99355.67;1668940;85;21002;-80
2022/07/12 00:18:45;;;;;;;4.62;2.10;;;;;;;13.56;74.42;99371.85;1644798;86;21070;-83
2022/07/12 00:21:12;;;;;;;5.78;2.72;;;;;;;13.41;76.89;99363.20;1680953;85;21040;-82
2022/07/12 00:23:39;;;;;;;6.70;2.72;;;;;;;13.30;77.42;99368.32;1648978;86;21003;-81
2022/07/12 00:26:05;;;;;;;4.03;2.72;;;;;;;13.24;77.01;99363.27;1649107;85;20985;-82
2022/07/12 00:28:32;;;;;;;10.10;2.90;;;;;;;13.18;76.37;99367.84;1678772;85;20982;-81
2022/07/12 00:30:59;;;;;;;4.95;3.42;;;;;;;13.11;78.34;99374.98;1670186;86;21045;-82
2022/07/12 00:33:26;;;;;;;8.98;3.98;;;;;;;13.06;78.32;99373.83;1680729;85;21029;-80
2022/07/12 00:35:53;;;;;;;9.93;4.70;;;;;;;13.02;77.54;99376.59;1672819;85;20984;-83
2022/07/12 00:38:20;;;;;;;6.47;4.45;;;;;;;12.98;79.98;99371.06;1673602;85;21051;-83
2022/07/12 00:40:47;;;;;;;7.03;4.20;;;;;;;12.97;79.06;99371.95;1652182;86;20998;-84
2022/07/12 00:43:14;;;;;;;11.28;4.20;;;;;;;12.95;78.55;99369.37;1670251;85;21043;-79
2022/07/12 00:45:40;;;;;;;12.53;4.47;;;;;;;12.85;78.49;99370.14;1682860;84;20995;-81
2022/07/12 00:48:07;;;;;;;6.83;3.85;;;;;;;12.80;79.82;99373.32;1677273;85;21028;-80
2022/07/12 00:50:34;;;;;;;7.47;3.77;;;;;;;12.77;78.61;99370.78;1677545;85;20999;-80
2022/07/12 00:53:03;;;;;;;7.25;4.30;;;;;;;12.67;79.82;99373.27;1680633;85;21458;-82
2022/07/12 00:55:29;;;;;;;6.83;4.20;;;;;;;12.62;79.57;99368.66;1663897;85;21013;-80
2022/07/12 00:57:56;;;;;;;7.90;4.08;;;;;;;12.56;79.25;99367.53;1653570;86;20994;-79
2022/07/12 01:00:26;;;;;;;6.17;4.03;;;;;;;12.47;81.89;99362.11;1658825;86;21017;-79
2022/07/12 01:02:55;;;;;;;6.97;3.40;;;;;;;12.42;79.80;99363.55;1651551;86;21002;-79
2022/07/12 01:05:22;;;;;;;4.75;2.83;;;;;;;12.40;79.59;99360.13;1667885;85;21005;-80
2022/07/12 01:07:49;;;;;;;6.37;3.45;;;;;;;12.33;80.34;99361.19;1645353;86;21169;-80
2022/07/12 01:10:16;;;;;;;4.42;3.10;;;;;;;12.27;81.16;99353.55;1671283;85;21011;-83
2022/07/12 01:12:43;;;;;;;4.72;2.85;;;;;;;12.23;81.18;99358.44;1666816;85;21026;-78
2022/07/12 01:15:10;;;;;;;6.55;2.80;;;;;;;12.13;82.90;99362.59;1666796;84;21072;-82
2022/07/12 01:17:38;;;;;;;6.47;2.77;;;;;;;12.06;81.33;99360.22;1697471;84;20983;-78
2022/07/12 01:20:07;;;;;;;8.05;2.90;;;;;;;12.00;80.57;99359.93;1659669;85;20957;-80
2022/07/12 01:22:37;;;;;;;5.30;2.90;;;;;;;11.93;80.55;99360.52;1640175;86;20959;-80
2022/07/12 01:25:06;;;;;;;4.78;2.70;;;;;;;11.88;81.53;99356.32;1658527;85;21010;-81
2022/07/12 01:27:33;;;;;;;4.95;2.42;;;;;;;11.84;81.78;99355.54;1675694;85;21497;-84
2022/07/12 01:30:03;;;;;;;5.53;2.33;;;;;;;11.80;82.25;99351.73;1677203;85;21076;-83
2022/07/12 01:32:30;;;;;;;4.42;2.70;;;;;;;11.83;81.05;99355.57;1648996;86;21026;-81
2022/07/12 01:35:00;;;;;;;6.00;2.27;;;;;;;11.82;82.34;99348.67;1677871;84;21513;-82
2022/07/12 01:37:33;;;;;;;4.15;2.65;;;;;;;11.81;81.37;99350.84;1667503;84;21001;-78
2022/07/12 01:40:02;;;;;;;5.95;2.67;;;;;;;11.78;81.22;99349.19;1650161;86;21035;-79
2022/07/12 01:42:30;;;;;;;7.03;2.62;;;;;;;11.75;81.02;99344.05;1668943;84;21029;-82
2022/07/12 01:44:58;;;;;;;7.70;2.40;;;;;;;11.75;82.34;99343.59;1622881;86;21028;-79
2022/07/12 01:47:28;;;;;;;8.88;2.83;;;;;;;11.73;81.68;99341.92;1669182;84;21038;-78
2022/07/12 01:49:55;;;;;;;5.47;2.83;;;;;;;11.70;81.18;99340.27;1678952;85;21006;-80
2022/07/12 01:52:23;;;;;;;7.05;2.20;;;;;;;11.69;81.11;99340.30;1670927;85;20998;-79
2022/07/12 01:54:50;;;;;;;6.45;2.62;;;;;;;11.66;80.95;99334.73;1678919;84;20974;-79
2022/07/12 01:57:17;;;;;;;8.53;2.87;;;;;;;11.67;80.39;99339.48;1672795;84;21058;-80
2022/07/12 01:59:44;;;;;;;6.28;2.80;;;;;;;11.59;81.22;99337.07;1679878;84;21527;-79
2022/07/12 02:02:10;;;;;;;6.10;2.42;;;;;;;11.54;80.89;99341.55;1679811;85;21034;-80
2022/07/12 02:04:38;;;;;;;5.40;2.37;;;;;;;11.51;81.21;99333.81;1678933;84;21782;-80
2022/07/12 02:07:05;;;;;;;6.80;2.58;;;;;;;11.48;80.98;99340.38;1674967;85;21038;-80
2022/07/12 02:09:32;;;;;;;6.22;2.50;;;;;;;11.43;81.74;99344.86;1674957;84;20997;-84
2022/07/12 02:12:00;;;;;;;5.40;2.40;;;;;;;11.43;80.33;99333.14;1680046;85;21005;-81
2022/07/12 02:14:27;;;;;;;4.83;2.30;;;;;;;11.35;80.86;99335.48;1701727;83;21502;-78
2022/07/12 02:16:53;;;;;;;4.15;2.10;;;;;;;11.35;81.19;99336.78;1718159;83;21015;-79
2022/07/12 02:19:20;;;;;;;8.40;2.27;;;;;;;11.34;80.61;99335.55;1707294;83;20935;-79
2022/07/12 02:21:47;;;;;;;5.42;2.20;;;;;;;11.29;80.52;99329.13;1694914;83;21541;-80
2022/07/12 02:24:14;;;;;;;5.92;2.40;;;;;;;11.25;80.86;99332.70;1713730;83;20979;-78
2022/07/12 02:26:41;;;;;;;4.53;2.35;;;;;;;11.19;81.64;99327.64;1720235;83;21001;-81
2022/07/12 02:29:07;;;;;;;9.38;2.80;;;;;;;11.19;81.21;99327.64;1673007;85;20969;-82
2022/07/12 02:31:34;;;;;;;8.10;2.60;;;;;;;11.13;81.22;99330.39;1673834;85;21021;-81
2022/07/12 02:34:01;;;;;;;3.62;2.00;;;;;;;11.09;81.26;99336.11;1674869;84;21510;-81
2022/07/12 02:36:27;;;;;;;6.97;2.40;;;;;;;11.02;81.18;99337.58;1675718;84;21000;-81
2022/07/12 02:38:55;;;;;;;3.90;2.52;;;;;;;10.97;81.87;99338.15;1679607;85;21062;-81
2022/07/12 02:41:21;;;;;;;5.50;2.15;;;;;;;10.90;82.11;99340.89;1715080;83;20984;-79
2022/07/12 02:43:48;;;;;;;6.47;2.42;;;;;;;10.85;82.54;99340.13;1718115;83;21019;-78
2022/07/12 02:46:15;;;;;;;8.75;2.25;;;;;;;10.84;80.21;99339.73;1670229;84;21453;-78
2022/07/12 02:48:42;;;;;;;4.05;2.47;;;;;;;10.80;81.60;99340.66;1680653;84;21002;-78
2022/07/12 02:51:10;;;;;;;3.85;2.47;;;;;;;10.79;82.08;99339.42;1698324;83;21529;-82
2022/07/12 02:53:37;;;;;;;11.90;2.40;;;;;;;10.79;80.40;99348.06;1723728;83;20986;-82
2022/07/12 02:56:04;;;;;;;6.92;2.50;;;;;;;10.78;80.81;99343.73;1705552;83;21488;-79
2022/07/12 02:58:31;;;;;;;3.72;2.60;;;;;;;10.75;81.02;99348.57;1717628;83;20977;-79
2022/07/12 03:00:58;;;;;;;9.23;2.15;;;;;;;10.76;82.78;99353.32;1707177;83;20980;-79
2022/07/12 03:03:25;;;;;;;3.47;2.10;;;;;;;10.79;81.52;99350.67;1717065;83;20962;-82
2022/07/12 03:05:52;;;;;;;3.70;2.47;;;;;;;10.81;80.76;99359.29;1707586;83;20979;-80
2022/07/12 03:08:19;;;;;;;13.55;2.72;;;;;;;10.80;81.26;99361.47;1718062;83;21036;-83
2022/07/12 03:10:46;;;;;;;4.47;2.10;;;;;;;10.78;81.34;99361.95;1712850;83;21067;-80
2022/07/12 03:13:13;;;;;;;6.28;2.50;;;;;;;10.81;82.46;99365.80;1722890;83;20973;-83
2022/07/12 03:15:39;;;;;;;3.17;1.87;;;;;;;10.81;81.74;99366.25;1708243;83;21009;-79
2022/07/12 03:18:06;;;;;;;5.20;2.22;;;;;;;10.81;81.37;99368.39;1704471;83;21041;-79
2022/07/12 03:20:33;;;;;;;6.90;2.52;;;;;;;10.81;82.42;99372.30;1702052;83;20950;-82
2022/07/12 03:23:00;;;;;;;5.90;2.80;;;;;;;10.80;82.10;99373.17;1681892;85;21430;-81
2022/07/12 03:25:27;;;;;;;4.70;2.10;;;;;;;10.82;82.71;99372.69;1686330;83;20984;-80
2022/07/12 03:27:54;;;;;;;5.62;2.22;;;;;;;10.84;82.91;99376.56;1687086;83;20958;-83
2022/07/12 03:30:21;;;;;;;4.37;2.12;;;;;;;10.81;83.28;99382.70;1694858;83;21505;-80
2022/07/12 03:32:49;;;;;;;4.50;2.30;;;;;;;10.83;81.95;99383.52;1684053;85;21041;-82
2022/07/12 03:35:15;;;;;;;9.63;2.60;;;;;;;10.86;82.32;99386.49;1694792;83;21497;-81
2022/07/12 03:37:49;;;;;;;8.50;2.55;;;;;;;10.88;82.30;99380.81;1685919;83;21033;-79
2022/07/12 03:40:18;;;;;;;9.68;2.55;;;;;;;10.88;82.85;99385.59;1689129;83;20989;-83
2022/07/12 03:42:46;;;;;;;4.58;2.22;;;;;;;10.90;80.91;99386.41;1690085;84;21025;-82
2022/07/12 03:45:14;;;;;;;7.90;2.72;;;;;;;10.93;81.41;99388.08;1691102;83;20973;-80
2022/07/12 03:47:42;;;;;;;4.60;2.37;;;;;;;10.98;81.98;99403.58;1691836;83;21005;-81
2022/07/12 03:50:13;;;;;;;8.03;2.55;;;;;;;11.01;81.91;99395.27;1694626;83;20992;-80
2022/07/12 03:52:42;;;;;;;9.85;2.62;;;;;;;11.05;82.01;99397.36;1692746;83;21753;-82
2022/07/12 03:55:12;;;;;;;5.83;2.58;;;;;;;11.11;81.54;99401.13;1682326;83;21015;-79
2022/07/12 03:57:39;;;;;;;5.28;2.40;;;;;;;11.14;80.77;99402.34;1691204;83;20989;-82
2022/07/12 04:00:11;;;;;;;7.85;2.50;;;;;;;11.18;79.99;99400.53;1704404;83;21470;-81
2022/07/12 04:02:39;;;;;;;8.23;2.62;;;;;;;11.20;80.80;99406.56;1720599;83;20961;-81
2022/07/12 04:05:07;;;;;;;4.62;2.83;;;;;;;11.26;81.78;99410.32;1692633;83;21017;-79
2022/07/12 04:07:35;;;;;;;8.10;2.60;;;;;;;11.35;81.77;99414.87;1715932;83;21009;-81
2022/07/12 04:10:04;;;;;;;4.40;2.33;;;;;;;11.44;81.67;99412.52;1693106;83;21053;-78
2022/07/12 04:12:30;;;;;;;8.95;2.90;;;;;;;11.53;81.13;99411.44;1714710;83;20961;-81
2022/07/12 04:14:57;;;;;;;7.83;2.85;;;;;;;11.60;81.52;99411.71;1697558;83;21031;-83
2022/07/12 04:17:24;;;;;;;8.25;4.05;;;;;;;11.70;81.46;99411.04;1709751;83;20991;-80
2022/07/12 04:19:51;;;;;;;11.08;5.25;;;;;;;11.80;81.44;99413.82;1708749;83;20962;-79
2022/07/12 04:22:18;;;;;;;9.85;4.83;;;;;;;11.91;81.57;99419.63;1718767;83;21513;-80
2022/07/12 04:24:44;;;;;;;6.90;3.77;;;;;;;12.03;81.32;99416.31;1704573;83;21002;-83
2022/07/12 04:27:11;;;;;;;7.60;2.95;;;;;;;12.12;81.05;99416.93;1713533;83;20959;-80
2022/07/12 04:29:38;;;;;;;4.35;2.50;;;;;;;12.24;81.07;99421.42;1706973;83;21463;-83
2022/07/12 04:32:06;;;;;;;8.23;2.52;;;;;;;12.32;80.69;99425.52;1697770;83;20994;-80
2022/07/12 04:34:33;;;;;;;4.35;2.70;;;;;;;12.42;80.53;99432.65;1707100;83;21036;-81
2022/07/12 04:36:59;;;;;;;5.03;2.22;;;;;;;12.49;80.21;99428.98;1704822;83;21023;-79
2022/07/12 04:39:26;;;;;;;8.68;3.15;;;;;;;12.57;79.56;99430.51;1678575;84;21003;-80
2022/07/12 04:41:53;;;;;;;5.15;2.60;;;;;;;12.59;79.70;99429.56;1659443;85;20996;-82
2022/07/12 04:44:20;;;;;;;4.85;2.70;;;;;;;12.65;79.66;99429.84;1661839;85;21038;-82
2022/07/12 04:46:47;;;;;;;7.08;2.67;;;;;;;12.70;79.38;99440.56;1655877;85;21461;-80
2022/07/12 04:49:14;;;;;;;6.37;2.62;;;;;;;12.74;79.42;99429.59;1659404;85;21006;-82
2022/07/12 04:51:40;;;;;;;5.70;3.10;;;;;;;12.81;79.06;99429.84;1658209;85;20997;-83
2022/07/12 04:54:07;;;;;;;7.37;2.50;;;;;;;12.85;79.07;99434.48;1658248;85;21509;-79
2022/07/12 04:56:34;;;;;;;4.90;2.58;;;;;;;12.92;79.28;99426.91;1664158;85;20989;-81
2022/07/12 04:59:01;;;;;;;8.98;2.60;;;;;;;13.02;79.06;99436.63;1653200;85;21125;-83
2022/07/12 05:01:31;;;;;;;8.58;2.42;;;;;;;13.07;78.81;99434.71;1677199;84;21461;-81
2022/07/12 05:03:59;;;;;;;6.65;2.50;;;;;;;13.14;78.63;99436.25;1679044;84;21522;-81
2022/07/12 05:06:26;;;;;;;8.83;4.87;;;;;;;13.20;78.13;99438.67;1648948;86;21078;-83
2022/07/12 05:08:53;;;;;;;5.70;2.58;;;;;;;13.27;77.86;99436.72;1668857;84;21084;-78
2022/07/12 05:11:20;;;;;;;4.35;2.37;;;;;;;13.32;78.04;99440.94;1657790;86;21487;-79
2022/07/12 05:13:46;;;;;;;7.12;2.77;;;;;;;13.42;77.82;99439.36;1656814;85;21006;-78
2022/07/12 05:16:14;;;;;;;12.68;3.00;;;;;;;13.47;77.20;99442.69;1677834;84;21057;-81
2022/07/12 05:18:41;;;;;;;3.77;2.27;;;;;;;13.52;76.96;99442.92;1647217;86;21038;-79
2022/07/12 05:21:08;;;;;;;8.08;2.25;;;;;;;13.60;76.72;99445.76;1657772;84;21046;-81
2022/07/12 05:23:35;;;;;;;3.37;2.25;;;;;;;13.67;76.87;99438.98;1644310;86;21022;-82
2022/07/12 05:26:02;;;;;;;9.43;2.62;;;;;;;13.78;76.94;99437.77;1661908;85;20960;-80
2022/07/12 05:28:29;;;;;;;4.92;2.80;;;;;;;13.89;76.91;99440.44;1670917;85;21123;-79
2022/07/12 05:30:55;;;;;;;5.53;2.90;;;;;;;13.98;76.72;99434.04;1679227;85;21520;-80
2022/07/12 05:33:23;;;;;;;7.65;2.58;;;;;;;14.07;76.67;99436.36;1669748;84;21026;-79
2022/07/12 05:35:51;;;;;;;4.87;3.05;;;;;;;14.15;76.34;99436.09;1690603;84;21041;-84
2022/07/12 05:38:18;;;;;;;9.00;3.10;;;;;;;14.24;75.92;99434.91;1673419;85;21008;-81
2022/07/12 05:40:44;;;;;;;13.62;2.90;;;;;;;14.33;75.88;99441.14;1704648;83;21506;-79
2022/07/12 05:43:11;;;;;;;4.65;2.37;;;;;;;14.42;75.85;99447.34;1715874;83;20995;-80
2022/07/12 05:45:38;;;;;;;4.75;2.55;;;;;;;14.51;75.18;99451.41;1721786;83;20969;-79
2022/07/12 05:48:05;;;;;;;3.72;2.15;;;;;;;14.61;74.92;99455.44;1718666;83;21005;-81
2022/07/12 05:50:32;;;;;;;5.50;2.83;;;;;;;14.71;74.70;99454.66;1711512;83;21078;-83
2022/07/12 05:55:44;;;;;;;6.42;3.00;;;;;;;14.89;73.71;99459.20;1701787;83;21003;-81
2022/07/12 05:58:11;;;;;;;8.90;2.90;;;;;;;14.98;73.43;99453.23;1718667;83;20967;-81
2022/07/12 06:00:38;;;;;;;5.70;2.65;;;;;;;15.03;73.47;99456.53;1704968;83;20976;-80
2022/07/12 06:03:05;;;;;;;5.92;2.70;;;;;;;15.09;73.34;99453.22;1663189;84;20942;-81
2022/07/12 06:05:32;;;;;;;7.87;2.87;;;;;;;15.19;72.82;99453.73;1675516;85;21022;-82
2022/07/12 06:07:58;;;;;;;5.80;2.90;;;;;;;15.24;72.94;99455.73;1673137;85;21473;-81
2022/07/12 06:10:25;;;;;;;5.92;3.30;;;;;;;15.30;72.49;99448.94;1642447;86;21025;-82
2022/07/12 06:12:52;;;;;;;8.63;3.67;;;;;;;15.36;72.51;99449.59;1673893;84;20988;-80
2022/07/12 06:15:19;;;;;;;5.97;3.20;;;;;;;15.44;72.75;99445.78;1648640;84;21048;-83
2022/07/12 06:17:47;;;;;;;7.83;2.92;;;;;;;15.54;72.23;99446.27;1678353;84;21463;-78
2022/07/12 06:20:14;;;;;;;6.80;2.80;;;;;;;15.65;71.65;99447.14;1673731;84;21004;-77
2022/07/12 06:22:42;;;;;;;7.92;2.95;;;;;;;15.70;71.12;99447.36;1673280;84;21064;-77
2022/07/12 06:25:09;;;;;;;6.53;2.65;;;;;;;15.73;71.18;99446.41;1675438;84;21049;-79
2022/07/12 06:27:39;;;;;;;4.90;2.58;;;;;;;15.84;71.66;99442.05;1706434;83;21491;-82
2022/07/12 06:30:07;;;;;;;4.65;2.47;;;;;;;15.98;71.89;99442.79;1650588;84;21484;-79
2022/07/12 06:32:34;;;;;;;3.87;2.22;;;;;;;16.12;71.79;99443.52;1706345;83;21580;-79
2022/07/12 06:35:00;;;;;;;3.60;2.20;;;;;;;16.26;71.25;99438.06;1707603;82;20991;-78
2022/07/12 06:37:27;;;;;;;4.53;2.40;;;;;;;16.40;71.12;99438.78;1668906;84;21005;-80
2022/07/12 06:39:55;;;;;;;7.42;3.52;;;;;;;16.50;69.88;99441.39;1675609;84;21574;-79
2022/07/12 06:42:22;;;;;;;4.65;2.22;;;;;;;16.52;69.71;99440.02;1676354;84;20994;-79
2022/07/12 06:44:51;;;;;;;6.37;2.60;;;;;;;16.62;69.03;99443.09;1671910;84;21856;-77
2022/07/12 06:47:17;;;;;;;6.05;2.00;;;;;;;16.69;68.09;99431.38;1674175;84;21565;-78
2022/07/12 06:49:44;;;;;;;6.20;2.10;;;;;;;16.72;66.57;99432.58;1676759;84;20993;-78
2022/07/12 06:52:11;;;;;;;4.10;1.87;;;;;;;16.77;67.73;99437.61;1647921;86;20987;-81
2022/07/12 06:54:38;;;;;;;6.35;1.95;;;;;;;16.80;66.83;99438.80;1654317;85;21041;-80
2022/07/12 06:57:05;;;;;;;5.37;1.92;;;;;;;16.84;66.80;99431.20;1710817;82;21142;-75
2022/07/12 06:59:33;;;;;;;6.60;2.17;;;;;;;16.94;66.58;99422.45;1681216;84;21144;-82
2022/07/12 07:02:01;;;;;;;3.52;2.27;;;;;;;17.00;64.10;99427.41;1707731;83;20987;-80
2022/07/12 07:04:28;;;;;;;6.00;1.98;;;;;;;17.04;65.33;99423.72;1702676;83;21112;-79
2022/07/12 07:06:54;;;;;;;5.40;1.87;;;;;;;17.09;63.78;99421.74;1655152;85;21605;-78
2022/07/12 07:09:21;;;;;;;4.03;1.90;;;;;;;17.20;64.15;99426.48;1651387;86;21047;-78
2022/07/12 07:11:48;;;;;;;7.33;1.90;;;;;;;17.22;63.84;99430.73;1653199;85;22046;-81
2022/07/12 07:14:15;;;;;;;5.20;2.00;;;;;;;17.30;63.21;99429.06;1658723;85;21018;-78
2022/07/12 07:16:42;;;;;;;4.92;2.00;;;;;;;17.39;63.12;99429.07;1672937;84;21064;-79
2022/07/12 07:19:08;;;;;;;6.20;2.08;;;;;;;17.52;63.24;99424.09;1684745;84;21132;-79
2022/07/12 07:21:35;;;;;;;4.67;1.95;;;;;;;17.65;62.19;99429.16;1681336;84;21020;-79
2022/07/12 07:24:03;;;;;;;4.67;1.90;;;;;;;17.74;61.47;99426.05;1664498;84;20977;-78
2022/07/12 07:26:32;;;;;;;5.62;1.65;;;;;;;17.78;58.26;99430.23;1681830;84;20956;-78
2022/07/12 07:31:44;;;;;;;5.47;2.10;;;;;;;17.94;59.47;99430.83;1669653;84;21047;-76
2022/07/12 07:34:11;;;;;;;3.75;1.77;;;;;;;18.03;59.13;99427.75;1681927;84;21007;-77
2022/07/12 07:36:38;;;;;;;3.75;1.90;;;;;;;18.04;58.39;99425.48;1663470;84;21011;-78
2022/07/12 07:39:05;;;;;;;7.50;1.70;;;;;;;18.11;57.15;99422.09;1676332;84;21010;-78
2022/07/12 07:41:31;;;;;;;5.12;1.70;;;;;;;18.25;58.17;99424.87;1685825;84;21551;-78
2022/07/12 07:43:58;;;;;;;6.12;1.95;;;;;;;18.35;55.77;99427.41;1684336;84;21076;-77
2022/07/12 07:46:25;;;;;;;6.20;2.10;;;;;;;18.47;58.08;99429.39;1679569;84;20992;-79
2022/07/12 07:48:52;;;;;;;4.08;1.50;;;;;;;18.61;58.79;99427.83;1657535;85;20982;-78
2022/07/12 07:51:19;;;;;;;4.15;1.60;;;;;;;18.77;58.61;99423.44;1648435;86;21038;-79
2022/07/12 07:53:46;;;;;;;5.40;1.40;;;;;;;18.92;56.42;99427.08;1654621;86;21487;-81
2022/07/12 07:56:13;;;;;;;2.65;1.55;;;;;;;18.95;56.22;99425.58;1639512;86;20972;-82
2022/07/12 07:58:39;;;;;;;3.72;1.87;;;;;;;19.04;56.02;99425.56;1646442;86;21010;-80
2022/07/12 08:01:06;;;;;;;5.40;1.67;;;;;;;19.11;53.00;99430.02;1647361;86;21507;-79
2022/07/12 08:03:33;;;;;;;8.00;1.60;;;;;;;19.20;54.30;99425.09;1622138;87;21030;-76
2022/07/12 08:06:00;;;;;;;4.75;1.60;;;;;;;19.23;53.08;99420.11;1622381;87;21496;-78
2022/07/12 08:08:32;;;;;;;7.80;1.98;;;;;;;19.34;52.73;99418.18;1666285;84;21070;-79
2022/07/12 08:10:57;;;;;;;6.10;1.95;;;;;;;19.52;53.61;99425.08;1672177;84;21001;-80
2022/07/12 08:13:24;;;;;;;3.85;1.57;;;;;;;19.61;52.65;99419.26;1669434;84;20975;-79
2022/07/12 08:15:51;;;;;;;6.87;1.82;;;;;;;19.73;53.07;99418.21;1673935;84;21009;-79
2022/07/12 08:18:18;;;;;;;7.00;1.40;;;;;;;19.78;52.76;99420.13;1701979;82;20954;-81
2022/07/12 08:20:45;;;;;;;2.87;1.50;;;;;;;19.89;50.07;99419.02;1699665;83;20994;-80
2022/07/12 08:23:12;;;;;;;4.90;1.72;;;;;;;19.99;51.37;99416.69;1707845;83;20995;-78
2022/07/12 08:25:39;;;;;;;5.25;1.67;;;;;;;20.03;50.80;99409.84;1693147;83;21515;-78
2022/07/12 08:28:06;;;;;;;7.60;2.62;;;;;;;20.24;51.26;99410.34;1697046;83;21019;-76
2022/07/12 08:30:33;;;;;;;2.92;1.55;;;;;;;20.47;50.46;99408.09;1700797;83;21197;-78
2022/07/12 08:33:00;;;;;;;7.65;1.77;;;;;;;20.66;50.06;99410.02;1700955;83;21450;-77
2022/07/12 08:35:27;;;;;;;9.25;2.00;;;;;;;20.89;49.76;99400.28;1704047;83;21022;-78
2022/07/12 08:37:54;;;;;;;4.17;1.55;;;;;;;21.07;50.28;99403.10;1695528;83;20966;-76
2022/07/12 08:40:21;;;;;;;6.30;2.15;;;;;;;21.19;47.51;99400.98;1684941;84;21017;-78
2022/07/12 08:42:47;;;;;;;3.02;1.70;;;;;;;21.14;47.94;99392.49;1675273;84;20974;-79
2022/07/12 08:45:14;;;;;;;3.65;1.62;;;;;;;21.18;49.04;99389.19;1651257;86;21042;-78
2022/07/12 08:47:41;;;;;;;3.42;1.62;;;;;;;21.26;49.54;99394.83;1658931;85;21572;-79
2022/07/12 08:50:16;;;;;;;2.85;1.50;;;;;;;21.39;50.10;99390.92;1668936;84;21009;-78
2022/07/12 08:52:53;;;;;;;8.73;1.90;;;;;;;21.54;49.88;99389.09;1659376;85;21013;-77
2022/07/12 08:55:24;;;;;;;5.42;1.35;;;;;;;21.69;48.66;99379.31;1662573;85;20988;-78
2022/07/12 08:57:55;;;;;;;6.65;1.70;;;;;;;21.81;49.66;99385.10;1661131;85;21545;-78
2022/07/12 09:00:23;;;;;;;9.75;1.70;;;;;;;21.78;48.37;99385.30;1666386;85;20965;-78
2022/07/12 09:02:56;;;;;;;8.18;1.90;;;;;;;21.80;49.24;99384.72;1660736;85;21005;-78
2022/07/12 09:05:29;;;;;;;13.03;7.42;;;;;;;21.74;48.64;99386.45;1644137;85;21056;-79
2022/07/12 09:08:10;;;;;;;6.05;2.35;;;;;;;21.74;48.75;99381.16;1650090;86;20995;-79
2022/07/12 09:10:58;;;;;;;5.87;2.98;;;;;;;21.76;48.60;99385.39;1671273;85;21031;-78
2022/07/12 09:13:45;;;;;;;4.10;1.75;;;;;;;21.84;48.58;99383.56;1661635;85;21047;-77
2022/07/12 09:16:14;;;;;;;7.30;1.62;;;;;;;21.95;48.08;99375.75;1681940;85;20931;-77
2022/07/12 09:18:42;;;;;;;3.40;1.82;;;;;;;21.94;47.64;99378.01;1632214;85;21020;-77
2022/07/12 09:21:09;;;;;;;5.83;1.52;;;;;;;21.83;47.87;99382.72;1706194;83;21476;-77
2022/07/12 09:23:36;;;;;;;5.53;1.90;;;;;;;21.74;48.01;99381.16;1710710;84;20993;-77
2022/07/12 09:54:40;;;;;;;5.78;1.40;;;;;;;23.19;45.87;99358.25;1791872;78;23438;-79
2022/07/12 09:57:12;;;;;;;5.95;1.92;;;;;;;23.20;45.73;99359.97;1764538;81;21026;-76
2022/07/12 09:59:39;;;;;;;5.03;1.83;;;;;;;23.12;43.59;99358.36;1731370;82;21092;-79
2022/07/12 10:02:06;;;;;;;3.87;1.60;;;;;;;22.90;44.86;99362.14;1756126;81;21267;-77
2022/07/12 10:04:34;;;;;;;5.85;1.90;;;;;;;22.83;44.98;99359.94;1740680;81;21545;-77
2022/07/12 10:07:02;;;;;;;5.62;1.85;;;;;;;22.86;45.25;99365.97;1741239;81;21048;-77
2022/07/12 10:09:29;;;;;;;6.17;2.40;;;;;;;22.86;44.95;99352.72;1728660;82;21091;-77
2022/07/12 10:11:57;;;;;;;7.78;2.33;;;;;;;22.89;44.55;99357.33;1728814;83;21044;-79
2022/07/12 10:14:24;;;;;;;6.62;2.30;;;;;;;22.95;43.91;99350.73;1728883;82;21032;-77
2022/07/12 10:16:53;;;;;;;4.87;1.95;;;;;;;22.99;44.36;99341.61;1728713;83;21524;-78
2022/07/12 10:19:26;;;;;;;4.05;2.15;;;;;;;22.94;44.39;99341.08;1728819;82;21044;-77
2022/07/12 10:21:57;;;;;;;7.17;3.58;;;;;;;22.89;43.98;99348.05;1744561;82;21143;-78
2022/07/12 10:24:46;;;;;;;5.12;2.52;;;;;;;22.83;44.04;99348.00;1745889;82;21496;-78
2022/07/12 10:27:23;;;;;;;8.23;3.00;;;;;;;22.85;44.18;99343.92;1743419;81;21050;-78
2022/07/12 10:29:52;;;;;;;13.78;2.67;;;;;;;22.86;42.98;99340.78;1740044;81;21062;-78
2022/07/12 10:32:36;;;;;;;3.87;1.90;;;;;;;22.90;43.16;99343.58;1733285;81;21042;-78
2022/07/12 10:35:13;;;;;;;6.55;2.27;;;;;;;22.97;42.97;99339.55;1741854;81;21075;-78
2022/07/12 10:37:40;;;;;;;3.65;1.80;;;;;;;23.10;43.05;99328.45;1760598;80;21018;-78
2022/07/12 10:40:20;;;;;;;5.08;2.00;;;;;;;23.15;43.36;99324.96;1724626;82;21106;-77
2022/07/12 10:43:08;;;;;;;4.15;1.67;;;;;;;23.23;43.51;99323.91;1733439;81;21006;-79
2022/07/12 10:45:41;;;;;;;2.35;1.42;;;;;;;23.40;43.74;99322.67;1736078;81;21041;-78
2022/07/12 10:48:09;;;;;;;;;;;;;;;23.60;43.63;99321.67;1730798;81;21030;-79
2022/07/12 10:50:44;;;;;;;5.25;1.60;;;;;;;23.75;41.51;99318.31;1691868;82;20413;-78
2022/07/12 10:53:40;;;;;;;4.15;1.57;;;;;;;23.94;43.14;99325.77;1712321;81;21593;-78
2022/07/12 10:56:20;;;;;;;4.37;1.60;;;;;;;24.17;43.08;99326.62;1714039;82;21518;-79
2022/07/12 10:58:55;;;;;;;3.10;1.40;;;;;;;24.38;41.56;99314.31;1712089;83;20971;-79
2022/07/12 11:01:32;;;;;;;7.08;1.65;;;;;;;24.44;41.77;99307.67;1710965;83;21046;-78
2022/07/12 11:04:10;;;;;;;3.77;1.40;;;;;;;24.59;41.73;99306.95;1718505;83;21068;-79
2022/07/12 11:06:39;;;;;;;7.10;1.60;;;;;;;24.69;40.77;99307.94;1703584;83;21030;-78
2022/07/12 11:09:12;;;;;;;4.65;1.85;;;;;;;24.63;40.39;99311.09;1699341;83;21054;-79
2022/07/12 11:11:44;;;;;;;3.85;1.62;;;;;;;24.56;39.47;99317.36;1722281;83;22193;-79
2022/07/12 11:14:22;;;;;;;4.72;1.42;;;;;;;24.34;38.68;99318.19;1707879;82;20971;-78
2022/07/12 11:16:52;;;;;;;3.92;2.70;;;;;;;24.03;36.88;99323.70;1719754;82;21065;-77
2022/07/12 11:19:24;;;;;;;3.70;1.60;;;;;;;23.92;38.54;99329.86;1704672;83;21023;-78
2022/07/12 11:21:56;;;;;;;6.22;1.72;;;;;;;23.84;38.55;99331.42;1702974;82;21055;-78
2022/07/12 11:24:26;;;;;;;5.20;1.90;;;;;;;23.61;39.69;99314.89;1715014;82;21031;-79
2022/07/12 11:26:53;;;;;;;6.53;1.95;;;;;;;23.42;40.13;99331.86;1697445;83;21030;-79
2022/07/12 11:29:22;;;;;;;5.30;1.57;;;;;;;23.35;40.59;99323.97;1713196;82;20952;-79
2022/07/12 11:31:50;;;;;;;3.95;1.50;;;;;;;23.32;41.23;99332.18;1709572;82;21130;-78
2022/07/12 11:34:26;;;;;;;7.58;1.65;;;;;;;23.32;41.02;99330.36;1684649;83;20967;-78
2022/07/12 11:36:59;;;;;;;5.20;1.50;;;;;;;23.22;41.72;99334.66;1728065;81;21035;-79
2022/07/12 11:39:38;;;;;;;6.03;1.90;;;;;;;23.09;42.17;99347.13;1703331;83;20992;-79
2022/07/12 11:42:06;;;;;;;5.70;1.57;;;;;;;23.07;42.37;99340.59;1700416;83;21195;-78
2022/07/12 11:44:50;;;;;;;6.22;1.70;;;;;;;22.92;42.72;99345.64;1717482;82;21038;-79
2022/07/12 11:47:22;;;;;;;5.92;1.70;;;;;;;22.76;42.39;99345.45;1714697;82;21518;-77
2022/07/12 11:49:54;;;;;;;4.35;1.57;;;;;;;22.62;42.21;99341.58;1718787;82;21058;-79
2022/07/12 11:52:24;;;;;;;3.10;1.60;;;;;;;22.49;42.41;99345.59;1711295;82;22306;-78
2022/07/12 11:54:53;;;;;;;5.62;1.82;;;;;;;22.39;42.53;99350.69;1739467;81;22038;-78
2022/07/12 11:57:23;;;;;;;5.53;1.65;;;;;;;22.21;42.48;99352.78;1744748;81;21538;-78
2022/07/12 11:59:50;;;;;;;3.08;1.57;;;;;;;22.13;43.34;99352.47;1746998;81;20991;-78
2022/07/12 12:02:17;;;;;;;4.85;1.57;;;;;;;22.12;42.96;99348.59;1743125;81;21003;-78
2022/07/12 12:04:50;;;;;;;3.50;1.65;;;;;;;22.01;43.08;99352.83;1743042;81;21054;-78
2022/07/12 12:07:19;;;;;;;4.37;1.60;;;;;;;21.95;43.65;99351.92;1752697;80;21578;-79
2022/07/12 12:10:16;;;;;;;6.37;1.60;;;;;;;22.01;43.93;99346.21;1743276;81;21050;-78
2022/07/12 12:12:46;;;;;;;3.55;1.57;;;;;;;22.06;44.60;99341.91;1755163;80;21018;-78
2022/07/12 12:15:15;;;;;;;6.22;1.80;;;;;;;;;;1744695;81;21070;-76